sensor_id;sensor_type;location;lat;lon;timestamp;temperature;humidity
38941;DHT22;43236;47.208;7.518;2022-08-14T00:02:24;22.40;66.70
38941;DHT22;43236;47.208;7.518;2022-08-14T00:05:14;22.40;67.20
38941;DHT22;43236;47.208;7.518;2022-08-14T00:08:03;22.40;67.00
38941;DHT22;43236;47.208;7.518;2022-08-14T00:10:51;22.40;66.50
38941;DHT22;43236;47.208;7.518;2022-08-14T00:13:38;22.40;67.80
38941;DHT22;43236;47.208;7.518;2022-08-14T00:16:26;22.30;67.30
38941;DHT22;43236;47.208;7.518;2022-08-14T00:19:13;22.30;67.50
38941;DHT22;43236;47.208;7.518;2022-08-14T00:22:00;22.30;67.30
38941;DHT22;43236;47.208;7.518;2022-08-14T00:24:48;22.30;68.00
38941;DHT22;43236;47.208;7.518;2022-08-14T00:27:36;22.20;67.70
38941;DHT22;43236;47.208;7.518;2022-08-14T00:30:23;22.20;67.80
38941;DHT22;43236;47.208;7.518;2022-08-14T00:33:10;22.20;68.50
38941;DHT22;43236;47.208;7.518;2022-08-14T00:35:59;22.10;68.50
38941;DHT22;43236;47.208;7.518;2022-08-14T00:38:46;22.10;68.00
38941;DHT22;43236;47.208;7.518;2022-08-14T00:41:35;22.10;68.30
38941;DHT22;43236;47.208;7.518;2022-08-14T00:44:22;22.10;68.20
38941;DHT22;43236;47.208;7.518;2022-08-14T00:47:12;22.00;68.90
38941;DHT22;43236;47.208;7.518;2022-08-14T00:49:59;22.00;69.00
38941;DHT22;43236;47.208;7.518;2022-08-14T00:52:48;22.10;69.10
38941;DHT22;43236;47.208;7.518;2022-08-14T00:55:37;21.90;69.20
38941;DHT22;43236;47.208;7.518;2022-08-14T00:58:27;22.00;68.80
38941;DHT22;43236;47.208;7.518;2022-08-14T01:01:17;21.90;68.50
38941;DHT22;43236;47.208;7.518;2022-08-14T01:04:04;21.90;68.40
38941;DHT22;43236;47.208;7.518;2022-08-14T01:06:51;21.90;69.10
38941;DHT22;43236;47.208;7.518;2022-08-14T01:09:38;21.90;69.20
38941;DHT22;43236;47.208;7.518;2022-08-14T01:12:27;21.90;69.50
38941;DHT22;43236;47.208;7.518;2022-08-14T01:15:15;21.80;70.00
38941;DHT22;43236;47.208;7.518;2022-08-14T01:18:06;21.80;69.10
38941;DHT22;43236;47.208;7.518;2022-08-14T01:21:07;21.80;69.40
38941;DHT22;43236;47.208;7.518;2022-08-14T01:24:02;21.80;70.00
38941;DHT22;43236;47.208;7.518;2022-08-14T01:26:49;21.70;69.90
38941;DHT22;43236;47.208;7.518;2022-08-14T01:29:38;21.70;69.40
38941;DHT22;43236;47.208;7.518;2022-08-14T01:32:25;21.70;69.00
38941;DHT22;43236;47.208;7.518;2022-08-14T01:35:12;21.70;68.80
38941;DHT22;43236;47.208;7.518;2022-08-14T01:37:59;21.70;69.90
38941;DHT22;43236;47.208;7.518;2022-08-14T01:40:48;21.70;70.00
38941;DHT22;43236;47.208;7.518;2022-08-14T01:43:43;21.60;70.00
38941;DHT22;43236;47.208;7.518;2022-08-14T01:46:35;21.70;70.60
38941;DHT22;43236;47.208;7.518;2022-08-14T01:49:22;21.60;70.50
38941;DHT22;43236;47.208;7.518;2022-08-14T01:52:10;21.50;70.40
38941;DHT22;43236;47.208;7.518;2022-08-14T01:54:57;21.50;70.40
38941;DHT22;43236;47.208;7.518;2022-08-14T01:57:47;21.50;70.60
38941;DHT22;43236;47.208;7.518;2022-08-14T02:00:34;21.50;71.10
38941;DHT22;43236;47.208;7.518;2022-08-14T02:03:25;21.50;70.50
38941;DHT22;43236;47.208;7.518;2022-08-14T02:06:13;21.40;71.00
38941;DHT22;43236;47.208;7.518;2022-08-14T02:09:01;21.40;70.80
38941;DHT22;43236;47.208;7.518;2022-08-14T02:11:49;21.40;71.20
38941;DHT22;43236;47.208;7.518;2022-08-14T02:14:38;21.40;71.50
38941;DHT22;43236;47.208;7.518;2022-08-14T02:17:26;21.30;71.60
38941;DHT22;43236;47.208;7.518;2022-08-14T02:20:14;21.30;71.80
38941;DHT22;43236;47.208;7.518;2022-08-14T02:23:02;21.20;71.60
38941;DHT22;43236;47.208;7.518;2022-08-14T02:25:50;21.20;71.40
38941;DHT22;43236;47.208;7.518;2022-08-14T02:28:37;21.20;71.40
38941;DHT22;43236;47.208;7.518;2022-08-14T02:31:26;21.10;72.00
38941;DHT22;43236;47.208;7.518;2022-08-14T02:34:19;21.10;71.70
38941;DHT22;43236;47.208;7.518;2022-08-14T02:37:08;21.10;72.30
38941;DHT22;43236;47.208;7.518;2022-08-14T02:39:56;21.10;71.70
38941;DHT22;43236;47.208;7.518;2022-08-14T02:42:43;21.10;70.50
38941;DHT22;43236;47.208;7.518;2022-08-14T02:45:30;21.10;70.70
38941;DHT22;43236;47.208;7.518;2022-08-14T02:48:20;21.10;70.70
38941;DHT22;43236;47.208;7.518;2022-08-14T02:51:10;21.10;70.60
38941;DHT22;43236;47.208;7.518;2022-08-14T02:53:57;21.10;71.00
38941;DHT22;43236;47.208;7.518;2022-08-14T02:56:46;21.00;71.60
38941;DHT22;43236;47.208;7.518;2022-08-14T02:59:35;21.00;71.80
38941;DHT22;43236;47.208;7.518;2022-08-14T03:02:24;21.00;71.60
38941;DHT22;43236;47.208;7.518;2022-08-14T03:05:12;20.90;72.10
38941;DHT22;43236;47.208;7.518;2022-08-14T03:08:04;20.90;72.20
38941;DHT22;43236;47.208;7.518;2022-08-14T03:10:52;20.90;71.70
38941;DHT22;43236;47.208;7.518;2022-08-14T03:13:41;20.90;72.40
38941;DHT22;43236;47.208;7.518;2022-08-14T03:16:31;20.90;71.50
38941;DHT22;43236;47.208;7.518;2022-08-14T03:19:20;20.90;71.50
38941;DHT22;43236;47.208;7.518;2022-08-14T03:22:09;20.80;72.20
38941;DHT22;43236;47.208;7.518;2022-08-14T03:24:56;20.90;72.40
38941;DHT22;43236;47.208;7.518;2022-08-14T03:27:43;20.80;71.60
38941;DHT22;43236;47.208;7.518;2022-08-14T03:30:30;20.80;71.40
38941;DHT22;43236;47.208;7.518;2022-08-14T03:33:17;20.80;71.40
38941;DHT22;43236;47.208;7.518;2022-08-14T03:36:06;20.80;71.50
38941;DHT22;43236;47.208;7.518;2022-08-14T03:38:58;20.80;71.60
38941;DHT22;43236;47.208;7.518;2022-08-14T03:41:46;20.70;71.90
38941;DHT22;43236;47.208;7.518;2022-08-14T03:44:33;20.70;72.00
38941;DHT22;43236;47.208;7.518;2022-08-14T03:47:20;20.70;72.10
38941;DHT22;43236;47.208;7.518;2022-08-14T03:50:09;20.70;72.30
38941;DHT22;43236;47.208;7.518;2022-08-14T03:52:57;20.60;72.40
38941;DHT22;43236;47.208;7.518;2022-08-14T03:55:46;20.70;73.00
38941;DHT22;43236;47.208;7.518;2022-08-14T03:58:34;20.60;72.60
38941;DHT22;43236;47.208;7.518;2022-08-14T04:01:25;20.50;72.70
38941;DHT22;43236;47.208;7.518;2022-08-14T04:04:13;20.50;73.10
38941;DHT22;43236;47.208;7.518;2022-08-14T04:07:00;20.40;73.70
38941;DHT22;43236;47.208;7.518;2022-08-14T04:09:48;20.40;74.00
38941;DHT22;43236;47.208;7.518;2022-08-14T04:12:36;20.40;73.90
38941;DHT22;43236;47.208;7.518;2022-08-14T04:15:23;20.40;73.70
38941;DHT22;43236;47.208;7.518;2022-08-14T04:18:12;20.40;74.00
38941;DHT22;43236;47.208;7.518;2022-08-14T04:20:59;20.30;73.60
38941;DHT22;43236;47.208;7.518;2022-08-14T04:23:47;20.40;74.40
38941;DHT22;43236;47.208;7.518;2022-08-14T04:26:34;20.30;74.00
38941;DHT22;43236;47.208;7.518;2022-08-14T04:29:23;20.30;74.00
38941;DHT22;43236;47.208;7.518;2022-08-14T04:32:11;20.30;74.40
38941;DHT22;43236;47.208;7.518;2022-08-14T04:35:00;20.30;73.70
38941;DHT22;43236;47.208;7.518;2022-08-14T04:37:47;20.20;74.40
38941;DHT22;43236;47.208;7.518;2022-08-14T04:40:52;20.30;74.80
38941;DHT22;43236;47.208;7.518;2022-08-14T04:43:57;20.20;75.00
38941;DHT22;43236;47.208;7.518;2022-08-14T04:46:45;20.20;75.00
38941;DHT22;43236;47.208;7.518;2022-08-14T04:49:46;20.20;74.70
38941;DHT22;43236;47.208;7.518;2022-08-14T04:52:33;20.20;74.50
38941;DHT22;43236;47.208;7.518;2022-08-14T04:55:21;20.20;75.00
38941;DHT22;43236;47.208;7.518;2022-08-14T04:58:08;20.10;75.00
38941;DHT22;43236;47.208;7.518;2022-08-14T05:00:56;20.10;75.30
38941;DHT22;43236;47.208;7.518;2022-08-14T05:03:45;20.10;75.20
38941;DHT22;43236;47.208;7.518;2022-08-14T05:06:32;20.10;75.30
38941;DHT22;43236;47.208;7.518;2022-08-14T05:09:20;20.10;75.50
38941;DHT22;43236;47.208;7.518;2022-08-14T05:12:08;20.40;75.60
38941;DHT22;43236;47.208;7.518;2022-08-14T05:14:55;20.20;75.60
38941;DHT22;43236;47.208;7.518;2022-08-14T05:17:42;20.20;75.70
38941;DHT22;43236;47.208;7.518;2022-08-14T05:20:31;20.20;75.00
38941;DHT22;43236;47.208;7.518;2022-08-14T05:23:20;20.20;75.00
38941;DHT22;43236;47.208;7.518;2022-08-14T05:26:08;20.20;75.30
38941;DHT22;43236;47.208;7.518;2022-08-14T05:29:03;20.20;75.00
38941;DHT22;43236;47.208;7.518;2022-08-14T05:31:52;20.20;75.30
38941;DHT22;43236;47.208;7.518;2022-08-14T05:34:42;20.20;75.10
38941;DHT22;43236;47.208;7.518;2022-08-14T05:37:31;20.30;74.70
38941;DHT22;43236;47.208;7.518;2022-08-14T05:40:18;20.30;74.60
38941;DHT22;43236;47.208;7.518;2022-08-14T05:43:05;20.30;75.40
38941;DHT22;43236;47.208;7.518;2022-08-14T05:45:53;20.30;74.60
38941;DHT22;43236;47.208;7.518;2022-08-14T05:48:40;20.40;74.60
38941;DHT22;43236;47.208;7.518;2022-08-14T05:51:27;20.40;74.60
38941;DHT22;43236;47.208;7.518;2022-08-14T05:54:15;20.50;74.70
38941;DHT22;43236;47.208;7.518;2022-08-14T05:57:03;20.50;75.10
38941;DHT22;43236;47.208;7.518;2022-08-14T05:59:50;20.60;74.20
38941;DHT22;43236;47.208;7.518;2022-08-14T06:02:37;20.60;74.60
38941;DHT22;43236;47.208;7.518;2022-08-14T06:05:25;20.70;74.60
38941;DHT22;43236;47.208;7.518;2022-08-14T06:08:17;20.70;74.60
38941;DHT22;43236;47.208;7.518;2022-08-14T06:11:07;20.80;73.80
38941;DHT22;43236;47.208;7.518;2022-08-14T06:13:54;20.80;73.70
38941;DHT22;43236;47.208;7.518;2022-08-14T06:16:41;20.70;73.90
38941;DHT22;43236;47.208;7.518;2022-08-14T06:19:30;20.80;74.00
38941;DHT22;43236;47.208;7.518;2022-08-14T06:22:17;20.80;73.50
38941;DHT22;43236;47.208;7.518;2022-08-14T06:25:05;20.80;73.30
38941;DHT22;43236;47.208;7.518;2022-08-14T06:27:54;20.90;73.50
38941;DHT22;43236;47.208;7.518;2022-08-14T06:30:42;20.90;73.50
38941;DHT22;43236;47.208;7.518;2022-08-14T06:33:30;21.00;73.50
38941;DHT22;43236;47.208;7.518;2022-08-14T06:36:17;21.00;73.90
38941;DHT22;43236;47.208;7.518;2022-08-14T06:39:04;21.10;73.30
38941;DHT22;43236;47.208;7.518;2022-08-14T06:41:51;21.10;73.20
38941;DHT22;43236;47.208;7.518;2022-08-14T06:44:40;21.10;73.30
38941;DHT22;43236;47.208;7.518;2022-08-14T06:47:27;21.20;73.20
38941;DHT22;43236;47.208;7.518;2022-08-14T06:50:17;21.30;73.80
38941;DHT22;43236;47.208;7.518;2022-08-14T06:53:05;21.40;72.90
38941;DHT22;43236;47.208;7.518;2022-08-14T06:55:53;21.40;72.60
38941;DHT22;43236;47.208;7.518;2022-08-14T06:58:40;21.40;72.80
38941;DHT22;43236;47.208;7.518;2022-08-14T07:01:28;21.40;72.60
38941;DHT22;43236;47.208;7.518;2022-08-14T07:04:32;21.50;72.50
38941;DHT22;43236;47.208;7.518;2022-08-14T07:07:37;21.40;73.10
38941;DHT22;43236;47.208;7.518;2022-08-14T07:10:25;21.40;72.80
38941;DHT22;43236;47.208;7.518;2022-08-14T07:13:12;21.50;72.10
38941;DHT22;43236;47.208;7.518;2022-08-14T07:16:00;21.50;72.70
38941;DHT22;43236;47.208;7.518;2022-08-14T07:18:49;21.50;72.00
38941;DHT22;43236;47.208;7.518;2022-08-14T07:21:36;21.60;72.10
38941;DHT22;43236;47.208;7.518;2022-08-14T07:24:24;21.60;71.90
38941;DHT22;43236;47.208;7.518;2022-08-14T07:27:11;21.70;72.50
38941;DHT22;43236;47.208;7.518;2022-08-14T07:29:58;21.80;73.40
38941;DHT22;43236;47.208;7.518;2022-08-14T07:32:45;21.90;72.10
38941;DHT22;43236;47.208;7.518;2022-08-14T07:35:35;22.00;72.70
38941;DHT22;43236;47.208;7.518;2022-08-14T07:38:23;22.10;72.20
38941;DHT22;43236;47.208;7.518;2022-08-14T07:41:12;22.30;74.00
38941;DHT22;43236;47.208;7.518;2022-08-14T07:43:59;22.40;72.10
38941;DHT22;43236;47.208;7.518;2022-08-14T07:46:46;22.50;71.40
38941;DHT22;43236;47.208;7.518;2022-08-14T07:49:33;22.60;71.50
38941;DHT22;43236;47.208;7.518;2022-08-14T07:52:22;22.70;71.70
38941;DHT22;43236;47.208;7.518;2022-08-14T07:55:11;22.80;71.80
38941;DHT22;43236;47.208;7.518;2022-08-14T07:57:58;22.90;71.50
38941;DHT22;43236;47.208;7.518;2022-08-14T08:00:46;23.10;71.20
38941;DHT22;43236;47.208;7.518;2022-08-14T08:03:33;23.00;71.00
38941;DHT22;43236;47.208;7.518;2022-08-14T08:06:21;23.10;71.50
38941;DHT22;43236;47.208;7.518;2022-08-14T08:09:10;23.10;71.20
38941;DHT22;43236;47.208;7.518;2022-08-14T08:11:59;23.20;70.90
38941;DHT22;43236;47.208;7.518;2022-08-14T08:14:49;23.40;71.10
38941;DHT22;43236;47.208;7.518;2022-08-14T08:17:37;23.30;71.10
38941;DHT22;43236;47.208;7.518;2022-08-14T08:20:25;23.30;70.60
38941;DHT22;43236;47.208;7.518;2022-08-14T08:23:16;23.40;70.70
38941;DHT22;43236;47.208;7.518;2022-08-14T08:26:04;23.40;71.30
38941;DHT22;43236;47.208;7.518;2022-08-14T08:28:55;23.50;72.50
38941;DHT22;43236;47.208;7.518;2022-08-14T08:31:46;23.60;71.20
38941;DHT22;43236;47.208;7.518;2022-08-14T08:34:42;23.60;71.50
38941;DHT22;43236;47.208;7.518;2022-08-14T08:37:34;23.70;70.70
38941;DHT22;43236;47.208;7.518;2022-08-14T08:40:22;23.70;70.60
38941;DHT22;43236;47.208;7.518;2022-08-14T08:43:19;23.80;69.50
38941;DHT22;43236;47.208;7.518;2022-08-14T08:46:09;23.80;68.40
38941;DHT22;43236;47.208;7.518;2022-08-14T08:48:57;23.80;70.00
38941;DHT22;43236;47.208;7.518;2022-08-14T08:51:44;23.90;70.60
38941;DHT22;43236;47.208;7.518;2022-08-14T08:54:31;23.80;69.80
38941;DHT22;43236;47.208;7.518;2022-08-14T08:57:18;23.90;69.00
38941;DHT22;43236;47.208;7.518;2022-08-14T09:00:14;23.90;68.70
38941;DHT22;43236;47.208;7.518;2022-08-14T09:03:06;23.90;67.60
38941;DHT22;43236;47.208;7.518;2022-08-14T09:05:55;24.00;68.00
38941;DHT22;43236;47.208;7.518;2022-08-14T09:08:44;24.10;68.40
38941;DHT22;43236;47.208;7.518;2022-08-14T09:11:32;24.10;68.50
38941;DHT22;43236;47.208;7.518;2022-08-14T09:14:19;24.20;69.10
38941;DHT22;43236;47.208;7.518;2022-08-14T09:17:07;24.20;68.80
38941;DHT22;43236;47.208;7.518;2022-08-14T09:19:55;24.30;69.10
38941;DHT22;43236;47.208;7.518;2022-08-14T09:22:43;24.30;69.20
38941;DHT22;43236;47.208;7.518;2022-08-14T09:25:31;24.30;66.80
38941;DHT22;43236;47.208;7.518;2022-08-14T09:28:19;24.40;67.50
38941;DHT22;43236;47.208;7.518;2022-08-14T09:31:08;24.40;68.30
38941;DHT22;43236;47.208;7.518;2022-08-14T09:34:05;24.40;67.20
38941;DHT22;43236;47.208;7.518;2022-08-14T09:37:17;24.40;68.70
38941;DHT22;43236;47.208;7.518;2022-08-14T09:40:16;24.40;69.60
38941;DHT22;43236;47.208;7.518;2022-08-14T09:43:13;24.40;69.10
38941;DHT22;43236;47.208;7.518;2022-08-14T09:46:06;24.50;69.10
38941;DHT22;43236;47.208;7.518;2022-08-14T09:49:03;24.50;68.90
38941;DHT22;43236;47.208;7.518;2022-08-14T09:51:50;24.50;70.20
38941;DHT22;43236;47.208;7.518;2022-08-14T09:54:39;24.50;70.20
38941;DHT22;43236;47.208;7.518;2022-08-14T09:57:28;24.60;71.30
38941;DHT22;43236;47.208;7.518;2022-08-14T10:00:18;24.70;70.60
38941;DHT22;43236;47.208;7.518;2022-08-14T10:03:08;24.70;68.70
38941;DHT22;43236;47.208;7.518;2022-08-14T10:06:08;24.70;70.00
38941;DHT22;43236;47.208;7.518;2022-08-14T10:09:02;24.80;70.30
38941;DHT22;43236;47.208;7.518;2022-08-14T10:11:54;24.90;69.70
38941;DHT22;43236;47.208;7.518;2022-08-14T10:14:42;24.90;69.80
38941;DHT22;43236;47.208;7.518;2022-08-14T10:17:30;25.10;69.80
38941;DHT22;43236;47.208;7.518;2022-08-14T10:20:17;25.10;68.90
38941;DHT22;43236;47.208;7.518;2022-08-14T10:23:13;25.20;67.80
38941;DHT22;43236;47.208;7.518;2022-08-14T10:26:03;25.20;68.20
38941;DHT22;43236;47.208;7.518;2022-08-14T10:28:52;25.30;66.60
38941;DHT22;43236;47.208;7.518;2022-08-14T10:31:40;25.40;65.10
38941;DHT22;43236;47.208;7.518;2022-08-14T10:34:33;25.40;65.00
38941;DHT22;43236;47.208;7.518;2022-08-14T10:37:20;25.50;65.40
38941;DHT22;43236;47.208;7.518;2022-08-14T10:40:10;25.50;65.30
38941;DHT22;43236;47.208;7.518;2022-08-14T10:42:57;25.60;65.90
38941;DHT22;43236;47.208;7.518;2022-08-14T10:45:53;25.60;66.10
38941;DHT22;43236;47.208;7.518;2022-08-14T10:48:41;25.70;66.60
38941;DHT22;43236;47.208;7.518;2022-08-14T10:51:29;25.70;66.40
38941;DHT22;43236;47.208;7.518;2022-08-14T10:54:29;25.80;65.80
38941;DHT22;43236;47.208;7.518;2022-08-14T10:57:19;25.90;65.90
38941;DHT22;43236;47.208;7.518;2022-08-14T11:00:12;25.90;64.20
38941;DHT22;43236;47.208;7.518;2022-08-14T11:03:01;25.90;65.70
38941;DHT22;43236;47.208;7.518;2022-08-14T11:05:51;25.90;64.10
38941;DHT22;43236;47.208;7.518;2022-08-14T11:08:38;25.90;65.20
38941;DHT22;43236;47.208;7.518;2022-08-14T11:11:26;26.00;63.80
38941;DHT22;43236;47.208;7.518;2022-08-14T11:14:16;26.00;64.00
38941;DHT22;43236;47.208;7.518;2022-08-14T11:17:04;26.00;64.10
38941;DHT22;43236;47.208;7.518;2022-08-14T11:19:54;25.90;63.90
38941;DHT22;43236;47.208;7.518;2022-08-14T11:22:43;25.90;64.20
38941;DHT22;43236;47.208;7.518;2022-08-14T11:25:31;25.80;63.50
38941;DHT22;43236;47.208;7.518;2022-08-14T11:28:22;25.80;63.40
38941;DHT22;43236;47.208;7.518;2022-08-14T11:31:11;25.80;64.20
38941;DHT22;43236;47.208;7.518;2022-08-14T11:33:59;25.70;63.90
38941;DHT22;43236;47.208;7.518;2022-08-14T11:36:46;25.60;63.70
38941;DHT22;43236;47.208;7.518;2022-08-14T11:39:33;25.50;64.20
38941;DHT22;43236;47.208;7.518;2022-08-14T11:42:22;25.50;63.60
38941;DHT22;43236;47.208;7.518;2022-08-14T11:45:10;25.70;64.60
38941;DHT22;43236;47.208;7.518;2022-08-14T11:48:00;25.70;64.50
38941;DHT22;43236;47.208;7.518;2022-08-14T11:50:49;25.80;64.40
38941;DHT22;43236;47.208;7.518;2022-08-14T11:53:39;25.80;64.20
38941;DHT22;43236;47.208;7.518;2022-08-14T11:56:33;25.80;64.60
38941;DHT22;43236;47.208;7.518;2022-08-14T11:59:21;25.90;65.80
38941;DHT22;43236;47.208;7.518;2022-08-14T12:02:09;26.00;65.20
38941;DHT22;43236;47.208;7.518;2022-08-14T12:04:59;26.00;65.80
38941;DHT22;43236;47.208;7.518;2022-08-14T12:07:49;26.00;66.20
38941;DHT22;43236;47.208;7.518;2022-08-14T12:10:40;26.10;66.60
38941;DHT22;43236;47.208;7.518;2022-08-14T12:13:28;26.00;67.00
38941;DHT22;43236;47.208;7.518;2022-08-14T12:16:17;26.10;67.10
38941;DHT22;43236;47.208;7.518;2022-08-14T12:19:06;26.10;65.90
38941;DHT22;43236;47.208;7.518;2022-08-14T12:21:54;26.20;66.90
38941;DHT22;43236;47.208;7.518;2022-08-14T12:24:42;26.30;66.60
38941;DHT22;43236;47.208;7.518;2022-08-14T12:27:38;26.40;67.40
38941;DHT22;43236;47.208;7.518;2022-08-14T12:30:29;26.50;67.30
38941;DHT22;43236;47.208;7.518;2022-08-14T12:33:20;26.50;67.30
38941;DHT22;43236;47.208;7.518;2022-08-14T12:36:19;26.60;68.30
38941;DHT22;43236;47.208;7.518;2022-08-14T12:39:18;26.80;67.10
38941;DHT22;43236;47.208;7.518;2022-08-14T12:42:06;26.70;66.50
38941;DHT22;43236;47.208;7.518;2022-08-14T12:44:55;26.80;67.10
38941;DHT22;43236;47.208;7.518;2022-08-14T12:47:45;26.80;65.70
38941;DHT22;43236;47.208;7.518;2022-08-14T12:50:37;26.80;66.60
38941;DHT22;43236;47.208;7.518;2022-08-14T12:53:33;26.90;65.70
38941;DHT22;43236;47.208;7.518;2022-08-14T12:56:23;26.90;66.30
38941;DHT22;43236;47.208;7.518;2022-08-14T12:59:12;26.90;64.30
38941;DHT22;43236;47.208;7.518;2022-08-14T13:01:59;26.90;64.50
38941;DHT22;43236;47.208;7.518;2022-08-14T13:04:47;26.90;65.40
38941;DHT22;43236;47.208;7.518;2022-08-14T13:07:35;26.90;64.70
38941;DHT22;43236;47.208;7.518;2022-08-14T13:10:25;26.80;65.30
38941;DHT22;43236;47.208;7.518;2022-08-14T13:13:15;26.80;65.40
38941;DHT22;43236;47.208;7.518;2022-08-14T13:16:02;26.70;64.60
38941;DHT22;43236;47.208;7.518;2022-08-14T13:18:51;26.70;64.20
38941;DHT22;43236;47.208;7.518;2022-08-14T13:21:39;26.60;64.70
38941;DHT22;43236;47.208;7.518;2022-08-14T13:24:26;26.60;64.80
38941;DHT22;43236;47.208;7.518;2022-08-14T13:27:14;26.70;65.50
38941;DHT22;43236;47.208;7.518;2022-08-14T13:30:05;26.70;64.50
38941;DHT22;43236;47.208;7.518;2022-08-14T13:32:54;26.70;65.40
38941;DHT22;43236;47.208;7.518;2022-08-14T13:35:42;26.80;64.20
38941;DHT22;43236;47.208;7.518;2022-08-14T13:38:32;26.90;64.40
38941;DHT22;43236;47.208;7.518;2022-08-14T13:41:19;27.00;65.20
38941;DHT22;43236;47.208;7.518;2022-08-14T13:44:08;27.20;64.20
38941;DHT22;43236;47.208;7.518;2022-08-14T13:46:57;27.20;64.10
38941;DHT22;43236;47.208;7.518;2022-08-14T13:49:44;27.20;64.10
38941;DHT22;43236;47.208;7.518;2022-08-14T13:52:34;27.20;64.70
38941;DHT22;43236;47.208;7.518;2022-08-14T13:55:26;27.30;64.80
38941;DHT22;43236;47.208;7.518;2022-08-14T13:58:14;27.20;64.60
38941;DHT22;43236;47.208;7.518;2022-08-14T14:01:02;27.20;64.20
38941;DHT22;43236;47.208;7.518;2022-08-14T14:03:54;27.20;65.00
38941;DHT22;43236;47.208;7.518;2022-08-14T14:06:43;27.20;65.00
38941;DHT22;43236;47.208;7.518;2022-08-14T14:09:34;27.20;64.00
38941;DHT22;43236;47.208;7.518;2022-08-14T14:12:22;27.20;63.90
38941;DHT22;43236;47.208;7.518;2022-08-14T14:15:12;27.20;63.60
38941;DHT22;43236;47.208;7.518;2022-08-14T14:17:59;27.20;63.90
38941;DHT22;43236;47.208;7.518;2022-08-14T14:20:49;27.30;64.70
38941;DHT22;43236;47.208;7.518;2022-08-14T14:23:38;27.20;64.10
38941;DHT22;43236;47.208;7.518;2022-08-14T14:26:29;27.20;64.70
38941;DHT22;43236;47.208;7.518;2022-08-14T14:29:18;27.20;64.60
38941;DHT22;43236;47.208;7.518;2022-08-14T14:32:06;27.30;66.00
38941;DHT22;43236;47.208;7.518;2022-08-14T14:34:57;27.20;66.60
38941;DHT22;43236;47.208;7.518;2022-08-14T14:37:47;27.20;67.40
38941;DHT22;43236;47.208;7.518;2022-08-14T14:40:35;27.20;67.60
38941;DHT22;43236;47.208;7.518;2022-08-14T14:43:25;27.20;67.60
38941;DHT22;43236;47.208;7.518;2022-08-14T14:46:15;27.20;67.20
38941;DHT22;43236;47.208;7.518;2022-08-14T14:49:05;27.10;67.40
38941;DHT22;43236;47.208;7.518;2022-08-14T14:51:52;27.10;67.80
38941;DHT22;43236;47.208;7.518;2022-08-14T14:54:43;27.10;68.40
38941;DHT22;43236;47.208;7.518;2022-08-14T14:57:31;27.00;68.30
38941;DHT22;43236;47.208;7.518;2022-08-14T15:00:19;26.90;68.50
38941;DHT22;43236;47.208;7.518;2022-08-14T15:03:06;26.90;68.70
38941;DHT22;43236;47.208;7.518;2022-08-14T15:05:56;26.80;69.20
38941;DHT22;43236;47.208;7.518;2022-08-14T15:08:43;26.80;69.90
38941;DHT22;43236;47.208;7.518;2022-08-14T15:11:32;26.70;71.10
38941;DHT22;43236;47.208;7.518;2022-08-14T15:14:19;26.60;71.00
38941;DHT22;43236;47.208;7.518;2022-08-14T15:17:07;26.50;71.50
38941;DHT22;43236;47.208;7.518;2022-08-14T15:19:54;26.60;71.80
38941;DHT22;43236;47.208;7.518;2022-08-14T15:22:41;26.60;71.40
38941;DHT22;43236;47.208;7.518;2022-08-14T15:25:28;26.50;71.50
38941;DHT22;43236;47.208;7.518;2022-08-14T15:28:17;26.50;71.50
38941;DHT22;43236;47.208;7.518;2022-08-14T15:31:06;26.50;71.70
38941;DHT22;43236;47.208;7.518;2022-08-14T15:33:54;26.50;71.20
38941;DHT22;43236;47.208;7.518;2022-08-14T15:37:00;26.60;70.00
38941;DHT22;43236;47.208;7.518;2022-08-14T15:39:48;26.60;69.30
38941;DHT22;43236;47.208;7.518;2022-08-14T15:42:36;26.80;67.00
38941;DHT22;43236;47.208;7.518;2022-08-14T15:45:24;26.90;68.00
38941;DHT22;43236;47.208;7.518;2022-08-14T15:48:11;26.90;67.70
38941;DHT22;43236;47.208;7.518;2022-08-14T15:50:58;27.00;67.70
38941;DHT22;43236;47.208;7.518;2022-08-14T15:53:46;26.90;66.60
38941;DHT22;43236;47.208;7.518;2022-08-14T15:56:33;26.90;68.20
38941;DHT22;43236;47.208;7.518;2022-08-14T15:59:20;26.90;68.00
38941;DHT22;43236;47.208;7.518;2022-08-14T16:02:09;26.90;68.50
38941;DHT22;43236;47.208;7.518;2022-08-14T16:04:56;26.80;68.80
38941;DHT22;43236;47.208;7.518;2022-08-14T16:07:43;26.80;69.00
38941;DHT22;43236;47.208;7.518;2022-08-14T16:10:30;26.60;69.20
38941;DHT22;43236;47.208;7.518;2022-08-14T16:13:17;26.60;69.30
38941;DHT22;43236;47.208;7.518;2022-08-14T16:16:05;26.50;69.30
38941;DHT22;43236;47.208;7.518;2022-08-14T16:18:54;26.50;69.40
38941;DHT22;43236;47.208;7.518;2022-08-14T16:21:43;26.40;70.00
38941;DHT22;43236;47.208;7.518;2022-08-14T16:24:32;26.40;70.10
38941;DHT22;43236;47.208;7.518;2022-08-14T16:27:21;26.30;70.20
38941;DHT22;43236;47.208;7.518;2022-08-14T16:30:11;26.20;70.40
38941;DHT22;43236;47.208;7.518;2022-08-14T16:32:59;26.20;70.40
38941;DHT22;43236;47.208;7.518;2022-08-14T16:35:50;26.30;69.70
38941;DHT22;43236;47.208;7.518;2022-08-14T16:38:40;26.10;70.00
38941;DHT22;43236;47.208;7.518;2022-08-14T16:41:28;26.10;70.70
38941;DHT22;43236;47.208;7.518;2022-08-14T16:44:16;26.10;70.70
38941;DHT22;43236;47.208;7.518;2022-08-14T16:47:05;26.10;70.70
38941;DHT22;43236;47.208;7.518;2022-08-14T16:49:52;26.00;70.60
38941;DHT22;43236;47.208;7.518;2022-08-14T16:52:42;26.00;70.80
38941;DHT22;43236;47.208;7.518;2022-08-14T16:55:29;26.00;70.80
38941;DHT22;43236;47.208;7.518;2022-08-14T16:58:20;26.00;71.50
38941;DHT22;43236;47.208;7.518;2022-08-14T17:01:12;26.10;71.10
38941;DHT22;43236;47.208;7.518;2022-08-14T17:04:03;26.20;70.90
38941;DHT22;43236;47.208;7.518;2022-08-14T17:06:52;26.30;70.90
38941;DHT22;43236;47.208;7.518;2022-08-14T17:09:42;26.40;71.50
38941;DHT22;43236;47.208;7.518;2022-08-14T17:12:30;26.50;71.00
38941;DHT22;43236;47.208;7.518;2022-08-14T17:15:17;26.60;71.20
38941;DHT22;43236;47.208;7.518;2022-08-14T17:18:05;26.60;71.40
38941;DHT22;43236;47.208;7.518;2022-08-14T17:21:14;26.60;71.40
38941;DHT22;43236;47.208;7.518;2022-08-14T17:24:03;26.60;71.50
38941;DHT22;43236;47.208;7.518;2022-08-14T17:26:52;26.50;71.40
38941;DHT22;43236;47.208;7.518;2022-08-14T17:29:40;26.50;71.40
38941;DHT22;43236;47.208;7.518;2022-08-14T17:32:30;26.40;71.00
38941;DHT22;43236;47.208;7.518;2022-08-14T17:35:25;26.40;71.70
38941;DHT22;43236;47.208;7.518;2022-08-14T17:38:13;26.30;71.00
38941;DHT22;43236;47.208;7.518;2022-08-14T17:41:16;26.20;71.20
38941;DHT22;43236;47.208;7.518;2022-08-14T17:44:12;26.10;71.50
38941;DHT22;43236;47.208;7.518;2022-08-14T17:47:02;26.10;71.50
38941;DHT22;43236;47.208;7.518;2022-08-14T17:49:49;26.00;71.70